Terminal Aerodrome Forecast
Issued by NWS

Home | Current Version | Previous Version | Text Only | Print | Product List | Glossary On
Versions: 1 2 3 4 5 6 7 8 9 10 11 12 13 14 15
000
FTUS41 KPBZ 182320
TAFBVI
TAF
KBVI 182320Z 1900/1924 27006KT P6SM FEW045
     FM191000 24003KT 5SM BR SCT030
     FM191300 24005KT P6SM BKN045
     FM191700 25008KT P6SM VCTS BKN045CB
     FM192000 29005KT P6SM -SHRA VCTS BKN045CB
      AMD NOT SKED 1902/1912=

USA.gov is the U.S. government's official web portal to all federal, state and local government web resources and services.